createdAt,value
2022-12-29T00:01:42.263Z,16.57
2022-12-29T00:04:15.206Z,15.50
2022-12-29T00:06:43.355Z,15.17
2022-12-29T00:09:12.881Z,15.23
2022-12-29T00:11:39.721Z,15.43
2022-12-29T00:14:26.301Z,15.37
2022-12-29T00:16:53.196Z,15.63
2022-12-29T00:19:38.628Z,15.50
2022-12-29T00:22:24.246Z,16.33
2022-12-29T00:25:09.350Z,16.33
2022-12-29T00:27:55.005Z,16.47
2022-12-29T00:30:41.897Z,15.80
2022-12-29T00:33:30.693Z,14.60
2022-12-29T00:36:04.775Z,14.60
2022-12-29T00:38:54.577Z,13.97
2022-12-29T00:41:39.957Z,13.17
2022-12-29T00:44:08.332Z,13.17
2022-12-29T00:46:35.867Z,13.57
2022-12-29T00:49:22.068Z,13.17
2022-12-29T00:51:48.774Z,13.17
2022-12-29T00:54:18.027Z,12.93
2022-12-29T00:56:47.478Z,12.47
2022-12-29T00:59:14.863Z,13.00
2022-12-29T01:01:42.135Z,13.07
2022-12-29T01:04:09.994Z,11.47
2022-12-29T01:06:38.329Z,12.40
2022-12-29T01:09:24.179Z,12.40
2022-12-29T01:11:51.182Z,12.37
2022-12-29T01:14:19.114Z,12.20
2022-12-29T01:16:46.359Z,13.13
2022-12-29T01:19:14.323Z,13.87
2022-12-29T01:21:40.978Z,13.13
2022-12-29T01:24:07.644Z,13.50
2022-12-29T01:26:34.240Z,12.47
2022-12-29T01:29:00.999Z,13.37
2022-12-29T01:31:29.313Z,14.00
2022-12-29T01:33:55.953Z,13.07
2022-12-29T01:36:22.583Z,12.97
2022-12-29T01:38:49.229Z,11.53
2022-12-29T01:41:16.765Z,12.07
2022-12-29T01:43:47.467Z,12.87
2022-12-29T01:46:31.665Z,11.40
2022-12-29T01:49:23.077Z,11.63
2022-12-29T01:51:54.148Z,11.60
2022-12-29T01:54:27.732Z,11.93
2022-12-29T01:56:58.492Z,11.17
2022-12-29T01:59:32.271Z,11.53
2022-12-29T02:01:59.642Z,10.07
2022-12-29T02:04:27.785Z,9.87
2022-12-29T02:06:58.866Z,10.63
2022-12-29T02:09:25.575Z,11.50
2022-12-29T02:11:53.009Z,9.87
2022-12-29T02:14:19.604Z,10.30
2022-12-29T02:17:31.179Z,11.53
2022-12-29T02:20:07.407Z,11.20
2022-12-29T02:23:01.911Z,11.07
2022-12-29T02:25:37.334Z,11.27
2022-12-29T02:28:29.200Z,10.10
2022-12-29T02:31:14.616Z,11.20
2022-12-29T02:33:50.147Z,10.80
2022-12-29T02:36:39.148Z,11.60
2022-12-29T02:39:36.433Z,12.47
2022-12-29T02:42:22.534Z,12.87
2022-12-29T02:44:56.948Z,13.07
2022-12-29T02:47:36.389Z,13.40
2022-12-29T02:50:10.100Z,13.37
2022-12-29T02:52:47.598Z,13.17
2022-12-29T02:55:14.245Z,14.03
2022-12-29T02:57:40.979Z,14.03
2022-12-29T03:00:13.840Z,12.67
2022-12-29T03:05:30.795Z,13.97
2022-12-29T03:08:19.918Z,13.23
2022-12-29T03:11:31.925Z,12.57
2022-12-29T03:14:27.041Z,14.30
2022-12-29T03:17:03.507Z,13.60
2022-12-29T03:19:41.133Z,13.47
2022-12-29T03:22:29.085Z,13.90
2022-12-29T03:25:16.787Z,13.20
2022-12-29T03:27:49.087Z,13.17
2022-12-29T03:30:16.628Z,12.57
2022-12-29T03:32:48.963Z,12.10
2022-12-29T03:35:20.624Z,12.27
2022-12-29T03:38:26.008Z,11.47
2022-12-29T03:41:02.990Z,12.67
2022-12-29T03:43:30.784Z,12.87
2022-12-29T03:45:58.169Z,13.73
2022-12-29T03:48:24.911Z,14.50
2022-12-29T03:50:54.615Z,14.17
2022-12-29T03:53:22.207Z,12.90
2022-12-29T03:55:48.858Z,13.87
2022-12-29T03:58:15.964Z,12.50
2022-12-29T04:00:59.330Z,12.70
2022-12-29T04:03:26.010Z,13.43
2022-12-29T04:05:52.759Z,12.97
2022-12-29T04:08:19.545Z,12.70
2022-12-29T04:10:46.169Z,13.70
2022-12-29T04:13:15.661Z,13.27
2022-12-29T04:15:44.552Z,13.07
2022-12-29T04:18:11.166Z,12.10
2022-12-29T04:20:57.078Z,12.90
2022-12-29T04:23:23.687Z,12.57
2022-12-29T04:25:50.877Z,11.33
2022-12-29T04:28:19.223Z,12.20
2022-12-29T04:30:57.692Z,10.80
2022-12-29T04:33:28.654Z,11.03
2022-12-29T04:35:55.693Z,10.97
2022-12-29T04:38:24.854Z,11.50
2022-12-29T04:40:52.541Z,12.43
2022-12-29T04:43:25.224Z,12.57
2022-12-29T04:46:20.248Z,12.33
2022-12-29T04:48:52.132Z,13.37
2022-12-29T04:51:37.202Z,12.77
2022-12-29T04:54:06.329Z,13.17
2022-12-29T04:56:33.766Z,13.70
2022-12-29T04:59:00.381Z,14.47
2022-12-29T05:01:27.571Z,14.20
2022-12-29T05:03:54.332Z,15.23
2022-12-29T05:06:21.108Z,14.20
2022-12-29T05:08:49.903Z,12.77
2022-12-29T05:11:16.636Z,13.30
2022-12-29T05:13:48.702Z,12.53
2022-12-29T05:16:17.107Z,12.90
2022-12-29T05:18:44.195Z,12.03
2022-12-29T05:21:11.092Z,12.20
2022-12-29T05:23:39.834Z,13.13
2022-12-29T05:26:06.843Z,12.17
2022-12-29T05:28:52.984Z,12.50
2022-12-29T05:31:20.582Z,11.93
2022-12-29T05:33:48.561Z,11.80
2022-12-29T05:36:15.231Z,11.33
2022-12-29T05:38:48.868Z,12.37
2022-12-29T05:41:16.948Z,12.77
2022-12-29T05:44:03.994Z,12.00
2022-12-29T05:46:37.845Z,12.00
2022-12-29T05:49:16.515Z,12.67
2022-12-29T05:52:03.454Z,13.93
2022-12-29T05:54:32.554Z,14.13
2022-12-29T05:56:59.350Z,13.50
2022-12-29T05:59:26.131Z,14.53
2022-12-29T06:01:54.480Z,13.57
2022-12-29T06:04:21.196Z,13.13
2022-12-29T06:06:48.224Z,12.70
2022-12-29T06:09:23.088Z,12.40
2022-12-29T06:11:50.315Z,13.73
2022-12-29T06:14:16.934Z,13.73
2022-12-29T06:16:43.829Z,14.00
2022-12-29T06:19:12.780Z,13.33
2022-12-29T06:21:40.759Z,14.47
2022-12-29T06:24:07.829Z,14.27
2022-12-29T06:26:37.725Z,14.17
2022-12-29T06:29:04.408Z,13.77
2022-12-29T06:31:31.120Z,13.93
2022-12-29T06:33:57.792Z,12.83
2022-12-29T06:36:24.445Z,14.10
2022-12-29T06:38:53.427Z,14.80
2022-12-29T06:41:22.124Z,13.77
2022-12-29T06:44:09.375Z,14.70
2022-12-29T06:46:50.237Z,14.37
2022-12-29T06:49:17.270Z,13.10
2022-12-29T06:51:43.914Z,14.40
2022-12-29T06:54:10.624Z,15.20
2022-12-29T06:56:37.219Z,15.40
2022-12-29T06:59:04.205Z,14.27
2022-12-29T07:01:30.868Z,14.80
2022-12-29T07:03:58.466Z,14.40
2022-12-29T07:06:25.109Z,13.30
2022-12-29T07:08:51.732Z,14.17
2022-12-29T07:11:18.320Z,14.57
2022-12-29T07:13:44.885Z,13.17
2022-12-29T07:16:11.638Z,12.83
2022-12-29T07:18:38.427Z,13.50
2022-12-29T07:21:05.506Z,13.70
2022-12-29T07:23:32.401Z,13.40
2022-12-29T07:26:07.494Z,13.20
2022-12-29T07:28:36.254Z,13.17
2022-12-29T07:31:03.092Z,13.27
2022-12-29T07:33:30.469Z,13.03
2022-12-29T07:35:57.489Z,13.13
2022-12-29T07:38:24.533Z,13.93
2022-12-29T07:40:51.116Z,12.97
2022-12-29T07:43:17.705Z,13.53
2022-12-29T07:45:58.736Z,13.93
2022-12-29T07:48:26.661Z,13.53
2022-12-29T07:50:53.582Z,12.87
2022-12-29T07:53:20.539Z,12.47
2022-12-29T07:55:47.292Z,14.27
2022-12-29T07:58:13.895Z,12.67
2022-12-29T08:00:40.700Z,13.30
2022-12-29T08:03:07.320Z,13.20
2022-12-29T08:05:35.190Z,12.53
2022-12-29T08:08:01.774Z,13.63
2022-12-29T08:10:28.536Z,13.37
2022-12-29T08:12:55.168Z,13.57
2022-12-29T08:15:24.444Z,12.13
2022-12-29T08:17:53.793Z,13.03
2022-12-29T08:20:20.374Z,13.63
2022-12-29T08:22:46.967Z,13.60
2022-12-29T08:25:13.583Z,14.82
2022-12-29T08:27:40.186Z,13.55
2022-12-29T08:30:07.527Z,12.63
2022-12-29T08:32:34.655Z,12.38
2022-12-29T08:35:01.581Z,12.48
2022-12-29T08:37:31.281Z,12.20
2022-12-29T08:39:59.655Z,11.90
2022-12-29T08:42:31.802Z,11.82
2022-12-29T08:45:02.074Z,10.70
2022-12-29T08:47:29.045Z,11.20
2022-12-29T08:49:55.716Z,11.85
2022-12-29T08:52:22.401Z,11.90
2022-12-29T08:54:48.988Z,12.32
2022-12-29T08:57:15.653Z,11.68
2022-12-29T08:59:54.643Z,12.10
2022-12-29T09:02:24.791Z,13.27
2022-12-29T09:04:52.452Z,12.45
2022-12-29T09:07:19.080Z,11.48
2022-12-29T09:09:45.763Z,10.57
2022-12-29T09:12:12.449Z,10.70
2022-12-29T09:14:39.189Z,10.65
2022-12-29T09:17:24.072Z,11.38
2022-12-29T09:19:50.657Z,10.75
2022-12-29T09:22:17.225Z,11.27
2022-12-29T09:24:43.806Z,10.63
2022-12-29T09:27:10.799Z,10.30
2022-12-29T09:29:37.350Z,10.68
2022-12-29T09:32:06.876Z,10.45
2022-12-29T09:34:34.460Z,11.07
2022-12-29T09:37:01.027Z,10.50
2022-12-29T09:39:27.708Z,10.85
2022-12-29T09:42:05.096Z,10.25
2022-12-29T09:45:17.253Z,11.57
2022-12-29T09:47:46.004Z,10.63
2022-12-29T09:50:21.500Z,9.73
2022-12-29T09:52:59.117Z,10.18
2022-12-29T09:55:37.647Z,10.98
2022-12-29T09:58:12.213Z,10.52
2022-12-29T10:00:54.862Z,9.40
2022-12-29T10:03:25.218Z,10.85
2022-12-29T10:06:15.978Z,10.57
2022-12-29T10:09:01.281Z,10.15
2022-12-29T10:11:50.885Z,9.25
2022-12-29T10:14:46.433Z,9.35
2022-12-29T10:17:32.829Z,9.70
2022-12-29T10:20:36.775Z,9.43
2022-12-29T10:23:15.334Z,9.98
2022-12-29T10:25:44.377Z,11.00
2022-12-29T10:28:21.715Z,9.70
2022-12-29T10:30:50.877Z,9.15
2022-12-29T10:33:24.639Z,8.50
2022-12-29T10:35:52.025Z,8.93
2022-12-29T10:38:28.735Z,8.50
2022-12-29T10:41:04.365Z,8.25
2022-12-29T10:43:35.405Z,7.45
2022-12-29T10:46:13.765Z,7.50
2022-12-29T10:48:41.083Z,7.05
2022-12-29T10:51:12.119Z,7.43
2022-12-29T10:53:46.557Z,7.07
2022-12-29T10:56:30.518Z,7.22
2022-12-29T10:59:01.372Z,6.35
2022-12-29T11:02:04.199Z,5.72
2022-12-29T11:04:45.917Z,5.45
2022-12-29T11:07:18.120Z,5.60
2022-12-29T11:09:46.860Z,5.63
2022-12-29T11:12:28.497Z,5.20
2022-12-29T11:15:08.404Z,5.30
2022-12-29T11:17:53.240Z,5.68
2022-12-29T11:20:29.056Z,5.22
2022-12-29T11:22:55.803Z,5.15
2022-12-29T11:25:22.395Z,5.53
2022-12-29T11:28:03.328Z,5.35
2022-12-29T11:30:32.351Z,5.30
2022-12-29T11:33:03.713Z,5.85
2022-12-29T11:35:37.211Z,5.50
2022-12-29T11:38:24.588Z,5.18
2022-12-29T11:40:51.663Z,5.82
2022-12-29T11:43:40.857Z,5.43
2022-12-29T11:46:08.632Z,6.00
2022-12-29T11:48:42.852Z,5.70
2022-12-29T11:51:12.800Z,5.57
2022-12-29T11:53:43.373Z,6.00
2022-12-29T11:56:14.971Z,6.68
2022-12-29T11:58:42.311Z,5.82
2022-12-29T12:01:20.790Z,6.97
2022-12-29T12:04:07.381Z,5.55
2022-12-29T12:06:42.498Z,4.97
2022-12-29T12:09:20.104Z,5.38
2022-12-29T12:11:47.529Z,5.57
2022-12-29T12:14:42.037Z,6.30
2022-12-29T12:17:47.716Z,5.65
2022-12-29T12:20:19.781Z,6.70
2022-12-29T12:22:59.587Z,6.68
2022-12-29T12:25:38.561Z,6.65
2022-12-29T12:28:16.913Z,6.22
2022-12-29T12:30:49.909Z,6.30
2022-12-29T12:33:28.065Z,6.60
2022-12-29T12:36:16.420Z,6.32
2022-12-29T12:39:03.373Z,5.85
2022-12-29T12:41:36.668Z,6.25
2022-12-29T12:44:23.371Z,5.90
2022-12-29T12:46:59.859Z,5.65
2022-12-29T12:49:54.090Z,5.53
2022-12-29T12:52:57.946Z,5.53
2022-12-29T12:55:45.105Z,5.18
2022-12-29T12:58:38.022Z,5.53
2022-12-29T13:01:29.664Z,5.43
2022-12-29T13:04:44.398Z,5.10
2022-12-29T13:07:50.960Z,5.70
2022-12-29T13:10:41.777Z,5.57
2022-12-29T13:13:37.388Z,5.78
2022-12-29T13:16:17.725Z,5.60
2022-12-29T13:18:56.890Z,4.40
2022-12-29T13:21:56.207Z,4.80
2022-12-29T13:24:48.147Z,5.13
2022-12-29T13:27:37.287Z,5.25
2022-12-29T13:30:22.924Z,5.40
2022-12-29T13:33:00.589Z,5.18
2022-12-29T13:35:49.175Z,5.30
2022-12-29T13:38:23.529Z,5.43
2022-12-29T13:41:15.082Z,5.68
2022-12-29T13:43:45.309Z,5.55
2022-12-29T13:46:17.049Z,5.75
2022-12-29T13:48:50.011Z,5.97
2022-12-29T13:51:20.206Z,5.00
2022-12-29T13:54:05.754Z,5.70
2022-12-29T13:56:57.077Z,6.27
2022-12-29T13:59:49.791Z,6.72
2022-12-29T14:02:27.392Z,6.80
2022-12-29T14:05:18.595Z,6.68
2022-12-29T14:07:45.878Z,6.13
2022-12-29T14:10:47.953Z,6.55
2022-12-29T14:13:21.657Z,5.93
2022-12-29T14:15:58.968Z,6.40
2022-12-29T14:18:29.255Z,5.70
2022-12-29T14:21:10.162Z,5.20
2022-12-29T14:23:42.642Z,5.90
2022-12-29T14:26:32.455Z,5.88
2022-12-29T14:29:26.391Z,6.25
2022-12-29T14:31:54.050Z,5.43
2022-12-29T14:34:20.739Z,5.35
2022-12-29T14:36:56.165Z,6.03
2022-12-29T14:39:42.248Z,5.45
2022-12-29T14:42:11.721Z,5.32
2022-12-29T14:44:52.885Z,5.50
2022-12-29T14:47:27.962Z,5.03
2022-12-29T14:49:55.759Z,5.00
2022-12-29T14:52:26.382Z,5.53
2022-12-29T14:55:17.785Z,6.68
2022-12-29T14:58:00.600Z,5.97
2022-12-29T15:00:36.290Z,6.38
2022-12-29T15:03:18.318Z,5.68
2022-12-29T15:05:47.314Z,5.53
2022-12-29T15:08:19.122Z,6.38
2022-12-29T15:10:55.048Z,5.95
2022-12-29T15:13:35.218Z,6.45
2022-12-29T15:16:01.832Z,6.15
2022-12-29T15:18:33.596Z,6.13
2022-12-29T15:21:03.023Z,5.35
2022-12-29T15:23:33.490Z,6.28
2022-12-29T15:26:03.991Z,5.53
2022-12-29T15:28:45.256Z,5.97
2022-12-29T15:31:30.185Z,6.30
2022-12-29T15:34:12.760Z,6.47
2022-12-29T15:36:42.270Z,6.97
2022-12-29T15:39:36.117Z,5.82
2022-12-29T15:42:33.327Z,5.93
2022-12-29T15:45:10.923Z,6.50
2022-12-29T15:47:39.097Z,6.60
2022-12-29T15:50:25.928Z,6.82
2022-12-29T15:52:52.654Z,6.88
2022-12-29T15:55:24.660Z,7.78
2022-12-29T15:57:57.618Z,8.13
2022-12-29T16:00:38.321Z,7.38
2022-12-29T16:03:07.481Z,7.82
2022-12-29T16:05:40.945Z,7.88
2022-12-29T16:08:30.125Z,8.63
2022-12-29T16:10:57.309Z,8.93
2022-12-29T16:13:39.804Z,8.15
2022-12-29T16:16:19.112Z,8.45
2022-12-29T16:18:49.397Z,9.55
2022-12-29T16:21:38.409Z,9.98
2022-12-29T16:24:14.524Z,9.05
2022-12-29T16:26:48.646Z,9.25
2022-12-29T16:29:16.862Z,8.55
2022-12-29T16:32:03.567Z,10.98
2022-12-29T16:34:43.933Z,9.45
2022-12-29T16:37:30.796Z,10.38
2022-12-29T16:39:57.502Z,10.55
2022-12-29T16:42:39.951Z,10.02
2022-12-29T16:45:24.463Z,10.82
2022-12-29T16:48:06.033Z,12.45
2022-12-29T16:50:38.190Z,12.50
2022-12-29T16:53:06.274Z,8.97
2022-12-29T16:55:33.344Z,8.65
2022-12-29T16:58:01.138Z,9.65
2022-12-29T17:00:32.871Z,8.85
2022-12-29T17:03:01.741Z,10.90
2022-12-29T17:05:28.581Z,10.90
2022-12-29T17:07:56.160Z,9.93
2022-12-29T17:10:43.159Z,9.40
2022-12-29T17:13:09.855Z,8.98
2022-12-29T17:15:36.759Z,9.40
2022-12-29T17:18:06.355Z,10.95
2022-12-29T17:20:37.258Z,9.82
2022-12-29T17:23:17.538Z,10.27
2022-12-29T17:25:49.856Z,10.30
2022-12-29T17:28:24.766Z,10.85
2022-12-29T17:30:54.388Z,9.15
2022-12-29T17:33:21.716Z,9.40
2022-12-29T17:35:54.957Z,9.98
2022-12-29T17:38:31.363Z,9.75
2022-12-29T17:40:59.232Z,10.25
2022-12-29T17:43:30.059Z,9.27
2022-12-29T17:46:02.150Z,9.45
2022-12-29T17:48:28.759Z,9.30
2022-12-29T17:50:57.761Z,9.68
2022-12-29T17:53:28.266Z,10.43
2022-12-29T17:55:54.906Z,10.02
2022-12-29T17:58:23.867Z,10.15
2022-12-29T18:00:57.529Z,11.98
2022-12-29T18:03:34.406Z,11.95
2022-12-29T18:06:02.882Z,12.77
2022-12-29T18:08:30.483Z,14.25
2022-12-29T18:10:57.806Z,21.70
2022-12-29T18:13:39.022Z,15.77
2022-12-29T18:16:12.211Z,16.17
2022-12-29T18:18:38.958Z,16.58
2022-12-29T18:21:05.826Z,14.48
2022-12-29T18:23:36.845Z,12.98
2022-12-29T18:26:07.692Z,12.70
2022-12-29T18:28:34.769Z,13.82
2022-12-29T18:31:02.376Z,12.73
2022-12-29T18:33:30.081Z,12.57
2022-12-29T18:36:02.727Z,12.35
2022-12-29T18:38:29.949Z,14.25
2022-12-29T18:40:57.503Z,11.30
2022-12-29T18:43:25.080Z,10.23
2022-12-29T18:45:51.780Z,9.35
2022-12-29T18:48:19.871Z,9.80
2022-12-29T18:50:49.827Z,9.68
2022-12-29T18:53:22.094Z,9.80
2022-12-29T18:55:50.571Z,9.88
2022-12-29T18:58:17.120Z,10.68
2022-12-29T19:00:45.192Z,10.82
2022-12-29T19:03:16.904Z,10.98
2022-12-29T19:05:46.359Z,11.70
2022-12-29T19:08:13.205Z,11.45
2022-12-29T19:10:41.845Z,11.27
2022-12-29T19:13:15.992Z,11.45
2022-12-29T19:15:43.376Z,11.30
2022-12-29T19:18:43.142Z,10.63
2022-12-29T19:21:00.403Z,10.60
2022-12-29T19:23:27.531Z,10.70
2022-12-29T19:25:54.854Z,11.02
2022-12-29T19:28:26.365Z,11.45
2022-12-29T19:30:57.433Z,11.13
2022-12-29T19:33:25.160Z,11.85
2022-12-29T19:35:52.764Z,12.52
2022-12-29T19:38:20.577Z,13.52
2022-12-29T19:40:50.545Z,11.15
2022-12-29T19:43:18.121Z,11.82
2022-12-29T19:45:45.679Z,11.30
2022-12-29T19:48:18.239Z,12.10
2022-12-29T19:50:45.354Z,12.18
2022-12-29T19:53:13.076Z,12.05
2022-12-29T19:55:46.647Z,13.63
2022-12-29T19:58:14.072Z,15.50
2022-12-29T20:00:44.154Z,12.90
2022-12-29T20:03:11.751Z,13.20
2022-12-29T20:05:39.929Z,12.68
2022-12-29T20:08:07.110Z,12.65
2022-12-29T20:10:33.841Z,12.27
2022-12-29T20:13:00.499Z,12.48
2022-12-29T20:15:27.380Z,11.90
2022-12-29T20:20:41.109Z,12.35
2022-12-29T20:23:07.730Z,13.07
2022-12-29T20:25:49.645Z,12.55
2022-12-29T20:28:16.909Z,12.77
2022-12-29T20:30:44.389Z,12.48
2022-12-29T20:33:11.038Z,11.57
2022-12-29T20:35:37.656Z,11.52
2022-12-29T20:38:05.176Z,11.90
2022-12-29T20:40:32.381Z,12.38
2022-12-29T20:42:59.251Z,13.20
2022-12-29T20:45:26.166Z,13.60
2022-12-29T20:47:52.774Z,12.77
2022-12-29T20:50:19.364Z,12.85
2022-12-29T20:52:47.083Z,12.95
2022-12-29T20:55:14.294Z,13.38
2022-12-29T20:58:14.010Z,12.65
2022-12-29T21:00:30.325Z,12.38
2022-12-29T21:02:58.284Z,12.40
2022-12-29T21:05:26.493Z,12.32
2022-12-29T21:07:54.232Z,13.98
2022-12-29T21:10:22.399Z,13.23
2022-12-29T21:12:49.167Z,14.65
2022-12-29T21:15:16.305Z,15.30
2022-12-29T21:17:44.237Z,15.98
2022-12-29T21:20:19.958Z,17.45
2022-12-29T21:22:48.071Z,17.67
2022-12-29T21:25:15.348Z,16.27
2022-12-29T21:27:44.835Z,14.77
2022-12-29T21:30:12.685Z,13.63
2022-12-29T21:32:40.516Z,13.30
2022-12-29T21:35:08.865Z,13.85
2022-12-29T21:37:36.412Z,13.20
2022-12-29T21:40:04.594Z,12.65
2022-12-29T21:42:31.792Z,12.73
2022-12-29T21:45:20.809Z,11.68
2022-12-29T21:48:06.803Z,13.13
2022-12-29T21:50:33.500Z,12.43
2022-12-29T21:53:00.129Z,12.25
2022-12-29T21:55:26.730Z,12.55
2022-12-29T21:58:12.104Z,12.68
2022-12-29T22:00:57.144Z,12.88
2022-12-29T22:03:42.367Z,12.90
2022-12-29T22:06:30.864Z,12.63
2022-12-29T22:09:15.838Z,12.15
2022-12-29T22:12:01.135Z,12.13
2022-12-29T22:14:27.732Z,12.68
2022-12-29T22:16:54.331Z,11.90
2022-12-29T22:19:21.019Z,14.90
2022-12-29T22:21:47.603Z,15.27
2022-12-29T22:24:14.183Z,15.35
2022-12-29T22:26:40.906Z,14.07
2022-12-29T22:29:07.536Z,15.60
2022-12-29T22:31:34.279Z,15.43
2022-12-29T22:34:02.523Z,14.52
2022-12-29T22:36:29.748Z,13.98
2022-12-29T22:38:56.464Z,13.68
2022-12-29T22:41:23.449Z,14.55
2022-12-29T22:43:50.043Z,14.32
2022-12-29T22:46:16.763Z,12.98
2022-12-29T22:48:43.449Z,11.43
2022-12-29T22:51:10.070Z,12.38
2022-12-29T22:53:36.698Z,11.77
2022-12-29T22:56:09.068Z,12.43
2022-12-29T22:58:35.749Z,11.00
2022-12-29T23:01:02.849Z,10.85
2022-12-29T23:03:29.588Z,10.93
2022-12-29T23:05:58.143Z,10.73
2022-12-29T23:08:25.080Z,10.52
2022-12-29T23:10:52.076Z,10.52
2022-12-29T23:13:18.660Z,10.45
2022-12-29T23:15:46.125Z,9.85
2022-12-29T23:18:12.722Z,10.02
2022-12-29T23:20:40.100Z,9.77
2022-12-29T23:23:06.714Z,9.60
2022-12-29T23:25:38.561Z,10.18
2022-12-29T23:28:08.211Z,10.27
2022-12-29T23:30:35.104Z,10.70
2022-12-29T23:33:01.723Z,10.30
2022-12-29T23:35:28.359Z,9.70
2022-12-29T23:37:54.997Z,9.88
2022-12-29T23:40:21.605Z,10.23
2022-12-29T23:42:48.176Z,10.35
2022-12-29T23:45:14.880Z,11.13
2022-12-29T23:47:41.494Z,11.13
2022-12-29T23:50:08.715Z,11.00
2022-12-29T23:52:35.411Z,11.10
2022-12-29T23:55:02.236Z,11.68
2022-12-29T23:57:28.821Z,11.52
2022-12-29T23:59:55.463Z,10.65
